sensor_id;sensor_type;location;lat;lon;timestamp;P1;durP1;ratioP1;P2;durP2;ratioP2
35550;SDS011;21655;46.056;13.616;2022-12-18T00:00:45;8.30;;;4.97;;
35550;SDS011;21655;46.056;13.616;2022-12-18T00:03:12;8.25;;;4.88;;
35550;SDS011;21655;46.056;13.616;2022-12-18T00:05:45;10.15;;;5.28;;
35550;SDS011;21655;46.056;13.616;2022-12-18T00:08:15;8.70;;;5.10;;
35550;SDS011;21655;46.056;13.616;2022-12-18T00:10:42;8.45;;;5.20;;
35550;SDS011;21655;46.056;13.616;2022-12-18T00:13:08;8.93;;;4.88;;
35550;SDS011;21655;46.056;13.616;2022-12-18T00:15:34;8.32;;;4.85;;
35550;SDS011;21655;46.056;13.616;2022-12-18T00:18:00;9.23;;;5.00;;
35550;SDS011;21655;46.056;13.616;2022-12-18T00:20:26;10.32;;;5.55;;
35550;SDS011;21655;46.056;13.616;2022-12-18T00:22:51;8.80;;;5.40;;
35550;SDS011;21655;46.056;13.616;2022-12-18T00:25:17;8.25;;;5.18;;
35550;SDS011;21655;46.056;13.616;2022-12-18T00:27:43;10.55;;;5.57;;
35550;SDS011;21655;46.056;13.616;2022-12-18T00:30:08;9.07;;;4.50;;
35550;SDS011;21655;46.056;13.616;2022-12-18T00:32:35;9.13;;;5.40;;
35550;SDS011;21655;46.056;13.616;2022-12-18T00:35:00;8.63;;;4.72;;
35550;SDS011;21655;46.056;13.616;2022-12-18T00:37:25;9.63;;;5.35;;
35550;SDS011;21655;46.056;13.616;2022-12-18T00:39:51;10.15;;;5.55;;
35550;SDS011;21655;46.056;13.616;2022-12-18T00:42:16;10.15;;;5.70;;
35550;SDS011;21655;46.056;13.616;2022-12-18T00:45:00;9.77;;;5.45;;
35550;SDS011;21655;46.056;13.616;2022-12-18T00:47:25;9.63;;;5.88;;
35550;SDS011;21655;46.056;13.616;2022-12-18T00:49:51;10.30;;;5.57;;
35550;SDS011;21655;46.056;13.616;2022-12-18T00:52:16;10.98;;;6.63;;
35550;SDS011;21655;46.056;13.616;2022-12-18T00:54:42;9.20;;;5.72;;
35550;SDS011;21655;46.056;13.616;2022-12-18T00:57:07;9.85;;;5.38;;
35550;SDS011;21655;46.056;13.616;2022-12-18T00:59:33;10.60;;;5.88;;
35550;SDS011;21655;46.056;13.616;2022-12-18T01:01:58;11.07;;;6.03;;
35550;SDS011;21655;46.056;13.616;2022-12-18T01:04:23;10.95;;;6.50;;
35550;SDS011;21655;46.056;13.616;2022-12-18T01:06:49;10.43;;;5.70;;
35550;SDS011;21655;46.056;13.616;2022-12-18T01:09:14;12.20;;;6.90;;
35550;SDS011;21655;46.056;13.616;2022-12-18T01:11:40;10.35;;;5.97;;
35550;SDS011;21655;46.056;13.616;2022-12-18T01:14:05;10.85;;;6.22;;
35550;SDS011;21655;46.056;13.616;2022-12-18T01:16:31;10.75;;;6.40;;
35550;SDS011;21655;46.056;13.616;2022-12-18T01:18:56;11.20;;;6.13;;
35550;SDS011;21655;46.056;13.616;2022-12-18T01:21:22;12.02;;;6.15;;
35550;SDS011;21655;46.056;13.616;2022-12-18T01:23:51;12.15;;;6.50;;
35550;SDS011;21655;46.056;13.616;2022-12-18T01:26:17;11.13;;;6.57;;
35550;SDS011;21655;46.056;13.616;2022-12-18T01:28:42;12.65;;;6.45;;
35550;SDS011;21655;46.056;13.616;2022-12-18T01:33:36;12.60;;;6.82;;
35550;SDS011;21655;46.056;13.616;2022-12-18T01:36:02;11.27;;;6.35;;
35550;SDS011;21655;46.056;13.616;2022-12-18T01:38:28;11.70;;;6.00;;
35550;SDS011;21655;46.056;13.616;2022-12-18T01:40:57;12.05;;;6.47;;
35550;SDS011;21655;46.056;13.616;2022-12-18T01:43:40;11.23;;;5.90;;
35550;SDS011;21655;46.056;13.616;2022-12-18T01:46:23;11.07;;;6.47;;
35550;SDS011;21655;46.056;13.616;2022-12-18T01:48:51;12.05;;;6.47;;
35550;SDS011;21655;46.056;13.616;2022-12-18T01:51:20;12.07;;;6.40;;
35550;SDS011;21655;46.056;13.616;2022-12-18T01:53:46;11.27;;;6.47;;
35550;SDS011;21655;46.056;13.616;2022-12-18T01:56:13;11.27;;;6.32;;
35550;SDS011;21655;46.056;13.616;2022-12-18T01:58:48;13.05;;;7.40;;
35550;SDS011;21655;46.056;13.616;2022-12-18T02:01:21;12.13;;;6.57;;
35550;SDS011;21655;46.056;13.616;2022-12-18T02:03:48;11.35;;;5.97;;
35550;SDS011;21655;46.056;13.616;2022-12-18T02:06:57;12.07;;;6.63;;
35550;SDS011;21655;46.056;13.616;2022-12-18T02:09:12;12.57;;;6.07;;
35550;SDS011;21655;46.056;13.616;2022-12-18T02:14:16;12.13;;;6.90;;
35550;SDS011;21655;46.056;13.616;2022-12-18T02:17:18;12.52;;;7.10;;
35550;SDS011;21655;46.056;13.616;2022-12-18T02:20:20;12.60;;;6.72;;
35550;SDS011;21655;46.056;13.616;2022-12-18T02:27:54;12.05;;;6.30;;
35550;SDS011;21655;46.056;13.616;2022-12-18T02:30:25;14.20;;;7.22;;
35550;SDS011;21655;46.056;13.616;2022-12-18T02:32:54;12.15;;;6.57;;
35550;SDS011;21655;46.056;13.616;2022-12-18T02:35:23;12.55;;;6.60;;
35550;SDS011;21655;46.056;13.616;2022-12-18T02:37:52;12.55;;;7.60;;
35550;SDS011;21655;46.056;13.616;2022-12-18T02:40:19;11.57;;;6.47;;
35550;SDS011;21655;46.056;13.616;2022-12-18T02:42:47;13.43;;;7.35;;
35550;SDS011;21655;46.056;13.616;2022-12-18T02:45:12;14.23;;;7.50;;
35550;SDS011;21655;46.056;13.616;2022-12-18T02:47:38;14.32;;;7.00;;
35550;SDS011;21655;46.056;13.616;2022-12-18T02:50:10;12.48;;;6.85;;
35550;SDS011;21655;46.056;13.616;2022-12-18T02:55:45;11.52;;;6.45;;
35550;SDS011;21655;46.056;13.616;2022-12-18T02:59:00;12.45;;;6.85;;
35550;SDS011;21655;46.056;13.616;2022-12-18T03:04:11;11.23;;;6.47;;
35550;SDS011;21655;46.056;13.616;2022-12-18T03:06:58;12.85;;;6.55;;
35550;SDS011;21655;46.056;13.616;2022-12-18T03:09:33;14.05;;;7.10;;
35550;SDS011;21655;46.056;13.616;2022-12-18T03:12:04;13.65;;;7.00;;
35550;SDS011;21655;46.056;13.616;2022-12-18T03:17:40;12.38;;;6.75;;
35550;SDS011;21655;46.056;13.616;2022-12-18T03:20:14;13.02;;;6.63;;
35550;SDS011;21655;46.056;13.616;2022-12-18T03:22:44;11.93;;;6.65;;
35550;SDS011;21655;46.056;13.616;2022-12-18T03:25:14;13.50;;;7.07;;
35550;SDS011;21655;46.056;13.616;2022-12-18T03:27:44;12.98;;;6.88;;
35550;SDS011;21655;46.056;13.616;2022-12-18T03:30:14;12.05;;;7.22;;
35550;SDS011;21655;46.056;13.616;2022-12-18T03:35:09;11.07;;;6.45;;
35550;SDS011;21655;46.056;13.616;2022-12-18T03:37:37;13.25;;;7.07;;
35550;SDS011;21655;46.056;13.616;2022-12-18T03:40:03;13.05;;;6.65;;
35550;SDS011;21655;46.056;13.616;2022-12-18T03:45:23;14.05;;;6.45;;
35550;SDS011;21655;46.056;13.616;2022-12-18T03:48:01;14.15;;;7.32;;
35550;SDS011;21655;46.056;13.616;2022-12-18T03:50:38;13.43;;;7.10;;
35550;SDS011;21655;46.056;13.616;2022-12-18T03:53:36;14.73;;;6.93;;
35550;SDS011;21655;46.056;13.616;2022-12-18T03:56:14;13.70;;;7.00;;
35550;SDS011;21655;46.056;13.616;2022-12-18T03:58:42;12.70;;;6.93;;
35550;SDS011;21655;46.056;13.616;2022-12-18T04:01:10;12.90;;;6.82;;
35550;SDS011;21655;46.056;13.616;2022-12-18T04:03:38;12.18;;;6.70;;
35550;SDS011;21655;46.056;13.616;2022-12-18T04:06:06;15.30;;;7.55;;
35550;SDS011;21655;46.056;13.616;2022-12-18T04:08:32;13.20;;;7.35;;
35550;SDS011;21655;46.056;13.616;2022-12-18T04:11:00;12.43;;;5.93;;
35550;SDS011;21655;46.056;13.616;2022-12-18T04:13:29;12.70;;;6.80;;
35550;SDS011;21655;46.056;13.616;2022-12-18T04:15:59;12.10;;;6.18;;
35550;SDS011;21655;46.056;13.616;2022-12-18T04:18:24;13.30;;;7.40;;
35550;SDS011;21655;46.056;13.616;2022-12-18T04:20:49;12.50;;;7.30;;
35550;SDS011;21655;46.056;13.616;2022-12-18T04:23:15;13.27;;;7.22;;
35550;SDS011;21655;46.056;13.616;2022-12-18T04:25:40;12.77;;;7.53;;
35550;SDS011;21655;46.056;13.616;2022-12-18T04:28:06;13.75;;;7.07;;
35550;SDS011;21655;46.056;13.616;2022-12-18T04:30:31;13.35;;;7.32;;
35550;SDS011;21655;46.056;13.616;2022-12-18T04:32:57;12.18;;;7.07;;
35550;SDS011;21655;46.056;13.616;2022-12-18T04:35:22;14.10;;;7.15;;
35550;SDS011;21655;46.056;13.616;2022-12-18T04:37:48;11.82;;;6.32;;
35550;SDS011;21655;46.056;13.616;2022-12-18T04:40:13;14.50;;;7.55;;
35550;SDS011;21655;46.056;13.616;2022-12-18T04:42:39;13.15;;;7.10;;
35550;SDS011;21655;46.056;13.616;2022-12-18T04:45:05;14.73;;;7.60;;
35550;SDS011;21655;46.056;13.616;2022-12-18T04:47:32;13.93;;;7.63;;
35550;SDS011;21655;46.056;13.616;2022-12-18T04:49:57;13.32;;;7.35;;
35550;SDS011;21655;46.056;13.616;2022-12-18T04:52:23;13.48;;;7.40;;
35550;SDS011;21655;46.056;13.616;2022-12-18T04:54:48;13.82;;;7.45;;
35550;SDS011;21655;46.056;13.616;2022-12-18T04:57:14;13.70;;;7.25;;
35550;SDS011;21655;46.056;13.616;2022-12-18T04:59:39;15.10;;;7.30;;
35550;SDS011;21655;46.056;13.616;2022-12-18T05:02:05;15.57;;;7.55;;
35550;SDS011;21655;46.056;13.616;2022-12-18T05:04:30;14.70;;;6.93;;
35550;SDS011;21655;46.056;13.616;2022-12-18T05:06:55;13.45;;;7.18;;
35550;SDS011;21655;46.056;13.616;2022-12-18T05:09:21;12.50;;;7.22;;
35550;SDS011;21655;46.056;13.616;2022-12-18T05:11:46;13.60;;;6.95;;
35550;SDS011;21655;46.056;13.616;2022-12-18T05:14:12;13.05;;;7.20;;
35550;SDS011;21655;46.056;13.616;2022-12-18T05:16:37;13.45;;;7.05;;
35550;SDS011;21655;46.056;13.616;2022-12-18T05:19:03;14.73;;;7.82;;
35550;SDS011;21655;46.056;13.616;2022-12-18T05:21:28;14.63;;;7.35;;
35550;SDS011;21655;46.056;13.616;2022-12-18T05:23:54;13.65;;;7.30;;
35550;SDS011;21655;46.056;13.616;2022-12-18T05:26:19;12.88;;;7.07;;
35550;SDS011;21655;46.056;13.616;2022-12-18T05:28:45;12.55;;;7.13;;
35550;SDS011;21655;46.056;13.616;2022-12-18T05:31:11;12.73;;;7.13;;
35550;SDS011;21655;46.056;13.616;2022-12-18T05:33:37;15.35;;;7.45;;
35550;SDS011;21655;46.056;13.616;2022-12-18T05:36:03;13.88;;;7.78;;
35550;SDS011;21655;46.056;13.616;2022-12-18T05:38:31;15.50;;;7.63;;
35550;SDS011;21655;46.056;13.616;2022-12-18T05:40:57;14.45;;;7.22;;
35550;SDS011;21655;46.056;13.616;2022-12-18T05:43:23;14.18;;;7.60;;
35550;SDS011;21655;46.056;13.616;2022-12-18T05:45:51;13.48;;;6.90;;
35550;SDS011;21655;46.056;13.616;2022-12-18T05:48:17;12.65;;;6.75;;
35550;SDS011;21655;46.056;13.616;2022-12-18T05:50:45;14.23;;;6.88;;
35550;SDS011;21655;46.056;13.616;2022-12-18T05:53:12;14.75;;;7.25;;
35550;SDS011;21655;46.056;13.616;2022-12-18T05:55:39;15.57;;;7.85;;
35550;SDS011;21655;46.056;13.616;2022-12-18T05:58:07;13.07;;;6.90;;
35550;SDS011;21655;46.056;13.616;2022-12-18T06:00:35;13.88;;;6.60;;
35550;SDS011;21655;46.056;13.616;2022-12-18T06:03:05;11.32;;;7.05;;
35550;SDS011;21655;46.056;13.616;2022-12-18T06:05:35;14.80;;;7.00;;
35550;SDS011;21655;46.056;13.616;2022-12-18T06:08:02;11.52;;;6.55;;
35550;SDS011;21655;46.056;13.616;2022-12-18T06:10:27;14.48;;;7.45;;
35550;SDS011;21655;46.056;13.616;2022-12-18T06:12:53;12.65;;;6.38;;
35550;SDS011;21655;46.056;13.616;2022-12-18T06:15:18;13.10;;;7.22;;
35550;SDS011;21655;46.056;13.616;2022-12-18T06:17:44;11.95;;;6.45;;
35550;SDS011;21655;46.056;13.616;2022-12-18T06:20:09;12.40;;;6.90;;
35550;SDS011;21655;46.056;13.616;2022-12-18T06:22:35;11.60;;;6.53;;
35550;SDS011;21655;46.056;13.616;2022-12-18T06:25:00;12.23;;;6.07;;
35550;SDS011;21655;46.056;13.616;2022-12-18T06:27:26;12.75;;;6.40;;
35550;SDS011;21655;46.056;13.616;2022-12-18T06:29:51;13.82;;;7.07;;
35550;SDS011;21655;46.056;13.616;2022-12-18T06:32:17;13.40;;;7.35;;
35550;SDS011;21655;46.056;13.616;2022-12-18T06:34:42;12.00;;;6.32;;
35550;SDS011;21655;46.056;13.616;2022-12-18T06:37:08;12.52;;;7.10;;
35550;SDS011;21655;46.056;13.616;2022-12-18T06:39:33;13.70;;;6.72;;
35550;SDS011;21655;46.056;13.616;2022-12-18T06:41:59;12.70;;;7.00;;
35550;SDS011;21655;46.056;13.616;2022-12-18T06:44:24;15.15;;;7.05;;
35550;SDS011;21655;46.056;13.616;2022-12-18T06:46:49;13.63;;;7.22;;
35550;SDS011;21655;46.056;13.616;2022-12-18T06:49:15;13.63;;;6.80;;
35550;SDS011;21655;46.056;13.616;2022-12-18T06:51:41;11.88;;;6.93;;
35550;SDS011;21655;46.056;13.616;2022-12-18T06:54:07;14.63;;;7.80;;
35550;SDS011;21655;46.056;13.616;2022-12-18T06:56:32;12.50;;;7.00;;
35550;SDS011;21655;46.056;13.616;2022-12-18T06:58:58;13.48;;;7.00;;
35550;SDS011;21655;46.056;13.616;2022-12-18T07:01:23;13.55;;;6.68;;
35550;SDS011;21655;46.056;13.616;2022-12-18T07:03:56;13.73;;;7.03;;
35550;SDS011;21655;46.056;13.616;2022-12-18T07:06:23;12.52;;;6.47;;
35550;SDS011;21655;46.056;13.616;2022-12-18T07:08:50;12.90;;;7.00;;
35550;SDS011;21655;46.056;13.616;2022-12-18T07:11:18;12.80;;;6.97;;
35550;SDS011;21655;46.056;13.616;2022-12-18T07:13:44;14.48;;;7.28;;
35550;SDS011;21655;46.056;13.616;2022-12-18T07:16:14;14.60;;;7.90;;
35550;SDS011;21655;46.056;13.616;2022-12-18T07:18:41;12.55;;;6.97;;
35550;SDS011;21655;46.056;13.616;2022-12-18T07:21:08;10.48;;;6.15;;
35550;SDS011;21655;46.056;13.616;2022-12-18T07:23:35;13.15;;;7.15;;
35550;SDS011;21655;46.056;13.616;2022-12-18T07:26:02;12.98;;;6.30;;
35550;SDS011;21655;46.056;13.616;2022-12-18T07:28:32;16.27;;;7.32;;
35550;SDS011;21655;46.056;13.616;2022-12-18T07:31:02;14.07;;;6.90;;
35550;SDS011;21655;46.056;13.616;2022-12-18T07:33:28;13.25;;;7.35;;
35550;SDS011;21655;46.056;13.616;2022-12-18T07:35:54;15.32;;;7.57;;
35550;SDS011;21655;46.056;13.616;2022-12-18T07:38:19;13.63;;;7.50;;
35550;SDS011;21655;46.056;13.616;2022-12-18T07:40:45;14.02;;;7.43;;
35550;SDS011;21655;46.056;13.616;2022-12-18T07:43:10;13.40;;;7.63;;
35550;SDS011;21655;46.056;13.616;2022-12-18T07:45:36;14.68;;;7.75;;
35550;SDS011;21655;46.056;13.616;2022-12-18T07:48:01;14.38;;;7.60;;
35550;SDS011;21655;46.056;13.616;2022-12-18T07:50:27;12.30;;;6.88;;
35550;SDS011;21655;46.056;13.616;2022-12-18T07:52:52;14.52;;;7.60;;
35550;SDS011;21655;46.056;13.616;2022-12-18T07:55:18;15.73;;;7.97;;
35550;SDS011;21655;46.056;13.616;2022-12-18T07:57:43;16.98;;;8.27;;
35550;SDS011;21655;46.056;13.616;2022-12-18T08:00:08;14.77;;;8.32;;
35550;SDS011;21655;46.056;13.616;2022-12-18T08:02:34;13.55;;;7.35;;
35550;SDS011;21655;46.056;13.616;2022-12-18T08:05:00;15.38;;;7.03;;
35550;SDS011;21655;46.056;13.616;2022-12-18T08:07:25;12.68;;;6.85;;
35550;SDS011;21655;46.056;13.616;2022-12-18T08:09:51;15.07;;;7.78;;
35550;SDS011;21655;46.056;13.616;2022-12-18T08:12:16;15.57;;;7.97;;
35550;SDS011;21655;46.056;13.616;2022-12-18T08:14:41;15.10;;;7.97;;
35550;SDS011;21655;46.056;13.616;2022-12-18T08:17:07;14.95;;;8.02;;
35550;SDS011;21655;46.056;13.616;2022-12-18T08:19:32;17.45;;;8.52;;
35550;SDS011;21655;46.056;13.616;2022-12-18T08:21:58;14.13;;;7.75;;
35550;SDS011;21655;46.056;13.616;2022-12-18T08:24:23;15.30;;;8.32;;
35550;SDS011;21655;46.056;13.616;2022-12-18T08:26:48;13.95;;;7.47;;
35550;SDS011;21655;46.056;13.616;2022-12-18T08:29:14;16.30;;;8.32;;
35550;SDS011;21655;46.056;13.616;2022-12-18T08:31:39;16.50;;;8.40;;
35550;SDS011;21655;46.056;13.616;2022-12-18T08:34:05;15.52;;;8.13;;
35550;SDS011;21655;46.056;13.616;2022-12-18T08:36:30;16.77;;;9.00;;
35550;SDS011;21655;46.056;13.616;2022-12-18T08:38:56;15.55;;;8.07;;
35550;SDS011;21655;46.056;13.616;2022-12-18T08:41:21;14.20;;;7.97;;
35550;SDS011;21655;46.056;13.616;2022-12-18T08:43:47;17.17;;;8.48;;
35550;SDS011;21655;46.056;13.616;2022-12-18T08:46:32;17.23;;;7.70;;
35550;SDS011;21655;46.056;13.616;2022-12-18T08:49:00;14.10;;;7.80;;
35550;SDS011;21655;46.056;13.616;2022-12-18T08:51:25;15.68;;;8.38;;
35550;SDS011;21655;46.056;13.616;2022-12-18T08:53:51;14.55;;;7.68;;
35550;SDS011;21655;46.056;13.616;2022-12-18T08:56:16;15.40;;;8.38;;
35550;SDS011;21655;46.056;13.616;2022-12-18T08:58:42;15.30;;;8.27;;
35550;SDS011;21655;46.056;13.616;2022-12-18T09:01:08;13.32;;;7.20;;
35550;SDS011;21655;46.056;13.616;2022-12-18T09:03:35;13.23;;;7.72;;
35550;SDS011;21655;46.056;13.616;2022-12-18T09:06:01;12.82;;;7.80;;
35550;SDS011;21655;46.056;13.616;2022-12-18T09:08:27;12.88;;;7.93;;
35550;SDS011;21655;46.056;13.616;2022-12-18T09:10:53;12.05;;;7.88;;
35550;SDS011;21655;46.056;13.616;2022-12-18T09:13:19;14.43;;;8.57;;
35550;SDS011;21655;46.056;13.616;2022-12-18T09:15:46;12.93;;;7.55;;
35550;SDS011;21655;46.056;13.616;2022-12-18T09:18:16;11.57;;;7.22;;
35550;SDS011;21655;46.056;13.616;2022-12-18T09:20:43;13.48;;;7.95;;
35550;SDS011;21655;46.056;13.616;2022-12-18T09:23:09;14.77;;;8.02;;
35550;SDS011;21655;46.056;13.616;2022-12-18T09:25:34;12.45;;;7.25;;
35550;SDS011;21655;46.056;13.616;2022-12-18T09:28:04;12.02;;;7.13;;
35550;SDS011;21655;46.056;13.616;2022-12-18T09:30:34;13.63;;;7.45;;
35550;SDS011;21655;46.056;13.616;2022-12-18T09:33:02;13.05;;;6.97;;
35550;SDS011;21655;46.056;13.616;2022-12-18T09:35:27;13.00;;;7.43;;
35550;SDS011;21655;46.056;13.616;2022-12-18T09:37:53;12.38;;;7.80;;
35550;SDS011;21655;46.056;13.616;2022-12-18T09:40:20;12.50;;;7.03;;
35550;SDS011;21655;46.056;13.616;2022-12-18T09:42:51;13.13;;;7.60;;
35550;SDS011;21655;46.056;13.616;2022-12-18T09:45:20;14.23;;;7.95;;
35550;SDS011;21655;46.056;13.616;2022-12-18T09:47:47;11.95;;;7.10;;
35550;SDS011;21655;46.056;13.616;2022-12-18T09:50:26;13.50;;;7.78;;
35550;SDS011;21655;46.056;13.616;2022-12-18T09:52:57;13.05;;;7.40;;
35550;SDS011;21655;46.056;13.616;2022-12-18T09:56:02;12.60;;;7.22;;
35550;SDS011;21655;46.056;13.616;2022-12-18T10:00:52;12.40;;;7.25;;
35550;SDS011;21655;46.056;13.616;2022-12-18T10:03:18;14.32;;;7.93;;
35550;SDS011;21655;46.056;13.616;2022-12-18T10:05:53;12.80;;;7.40;;
35550;SDS011;21655;46.056;13.616;2022-12-18T10:19:50;12.85;;;7.18;;
35550;SDS011;21655;46.056;13.616;2022-12-18T10:24:53;13.07;;;7.22;;
35550;SDS011;21655;46.056;13.616;2022-12-18T10:27:38;9.73;;;6.47;;
35550;SDS011;21655;46.056;13.616;2022-12-18T10:30:11;10.93;;;6.15;;
35550;SDS011;21655;46.056;13.616;2022-12-18T10:32:39;10.75;;;6.43;;
35550;SDS011;21655;46.056;13.616;2022-12-18T10:35:07;13.07;;;7.22;;
35550;SDS011;21655;46.056;13.616;2022-12-18T10:38:00;11.32;;;7.10;;
35550;SDS011;21655;46.056;13.616;2022-12-18T10:40:28;12.77;;;7.47;;
35550;SDS011;21655;46.056;13.616;2022-12-18T10:43:03;11.93;;;7.00;;
35550;SDS011;21655;46.056;13.616;2022-12-18T10:45:30;12.68;;;7.30;;
35550;SDS011;21655;46.056;13.616;2022-12-18T10:47:56;10.82;;;6.78;;
35550;SDS011;21655;46.056;13.616;2022-12-18T10:53:01;11.55;;;6.85;;
35550;SDS011;21655;46.056;13.616;2022-12-18T10:55:47;12.13;;;6.55;;
35550;SDS011;21655;46.056;13.616;2022-12-18T10:58:19;13.45;;;7.93;;
35550;SDS011;21655;46.056;13.616;2022-12-18T11:03:33;13.05;;;6.85;;
35550;SDS011;21655;46.056;13.616;2022-12-18T11:06:22;12.15;;;7.28;;
35550;SDS011;21655;46.056;13.616;2022-12-18T11:09:06;10.95;;;6.82;;
35550;SDS011;21655;46.056;13.616;2022-12-18T11:12:18;11.63;;;6.75;;
35550;SDS011;21655;46.056;13.616;2022-12-18T11:17:19;12.30;;;7.10;;
35550;SDS011;21655;46.056;13.616;2022-12-18T11:19:52;11.02;;;6.68;;
35550;SDS011;21655;46.056;13.616;2022-12-18T11:22:20;10.07;;;6.13;;
35550;SDS011;21655;46.056;13.616;2022-12-18T11:24:52;13.18;;;7.63;;
35550;SDS011;21655;46.056;13.616;2022-12-18T11:27:21;11.13;;;7.07;;
35550;SDS011;21655;46.056;13.616;2022-12-18T11:29:46;12.75;;;7.75;;
35550;SDS011;21655;46.056;13.616;2022-12-18T11:37:41;11.93;;;7.25;;
35550;SDS011;21655;46.056;13.616;2022-12-18T11:40:14;13.15;;;7.30;;
35550;SDS011;21655;46.056;13.616;2022-12-18T11:42:48;11.35;;;6.90;;
35550;SDS011;21655;46.056;13.616;2022-12-18T11:50:54;12.52;;;6.05;;
35550;SDS011;21655;46.056;13.616;2022-12-18T11:53:22;12.82;;;6.38;;
35550;SDS011;21655;46.056;13.616;2022-12-18T12:11:41;12.10;;;6.82;;
35550;SDS011;21655;46.056;13.616;2022-12-18T12:33:56;11.02;;;6.53;;
35550;SDS011;21655;46.056;13.616;2022-12-18T12:39:51;12.30;;;6.75;;
35550;SDS011;21655;46.056;13.616;2022-12-18T12:42:23;11.85;;;7.13;;
35550;SDS011;21655;46.056;13.616;2022-12-18T12:45:18;10.30;;;6.57;;
35550;SDS011;21655;46.056;13.616;2022-12-18T12:47:48;12.68;;;6.75;;
35550;SDS011;21655;46.056;13.616;2022-12-18T12:50:17;10.40;;;6.22;;
35550;SDS011;21655;46.056;13.616;2022-12-18T12:52:45;10.93;;;6.68;;
35550;SDS011;21655;46.056;13.616;2022-12-18T12:55:17;12.23;;;7.10;;
35550;SDS011;21655;46.056;13.616;2022-12-18T13:00:43;13.90;;;7.53;;
35550;SDS011;21655;46.056;13.616;2022-12-18T13:06:39;12.93;;;7.18;;
35550;SDS011;21655;46.056;13.616;2022-12-18T13:09:10;12.40;;;6.97;;
35550;SDS011;21655;46.056;13.616;2022-12-18T13:11:37;14.18;;;7.50;;
35550;SDS011;21655;46.056;13.616;2022-12-18T13:14:24;10.77;;;6.30;;
35550;SDS011;21655;46.056;13.616;2022-12-18T13:19:48;10.98;;;6.72;;
35550;SDS011;21655;46.056;13.616;2022-12-18T13:24:53;12.00;;;7.32;;
35550;SDS011;21655;46.056;13.616;2022-12-18T13:43:28;12.40;;;7.43;;
35550;SDS011;21655;46.056;13.616;2022-12-18T13:48:47;13.63;;;8.20;;
35550;SDS011;21655;46.056;13.616;2022-12-18T13:51:51;11.25;;;6.95;;
35550;SDS011;21655;46.056;13.616;2022-12-18T13:54:28;11.55;;;7.28;;
35550;SDS011;21655;46.056;13.616;2022-12-18T13:56:59;13.98;;;7.65;;
35550;SDS011;21655;46.056;13.616;2022-12-18T13:59:25;12.80;;;7.80;;
35550;SDS011;21655;46.056;13.616;2022-12-18T14:01:58;13.02;;;7.35;;
35550;SDS011;21655;46.056;13.616;2022-12-18T14:04:31;13.55;;;7.95;;
35550;SDS011;21655;46.056;13.616;2022-12-18T14:07:01;11.13;;;6.90;;
35550;SDS011;21655;46.056;13.616;2022-12-18T14:09:33;12.13;;;7.15;;
35550;SDS011;21655;46.056;13.616;2022-12-18T14:12:00;11.73;;;7.55;;
35550;SDS011;21655;46.056;13.616;2022-12-18T14:14:46;15.82;;;8.05;;
35550;SDS011;21655;46.056;13.616;2022-12-18T14:17:14;14.88;;;8.05;;
35550;SDS011;21655;46.056;13.616;2022-12-18T14:19:47;14.93;;;8.45;;
35550;SDS011;21655;46.056;13.616;2022-12-18T14:22:22;13.85;;;8.00;;
35550;SDS011;21655;46.056;13.616;2022-12-18T14:27:41;14.68;;;8.10;;
35550;SDS011;21655;46.056;13.616;2022-12-18T14:30:32;17.65;;;8.48;;
35550;SDS011;21655;46.056;13.616;2022-12-18T14:33:20;16.23;;;8.60;;
35550;SDS011;21655;46.056;13.616;2022-12-18T14:38:31;16.45;;;8.45;;
35550;SDS011;21655;46.056;13.616;2022-12-18T14:41:14;17.23;;;8.88;;
35550;SDS011;21655;46.056;13.616;2022-12-18T14:43:42;16.73;;;8.05;;
35550;SDS011;21655;46.056;13.616;2022-12-18T14:46:25;16.15;;;8.00;;
35550;SDS011;21655;46.056;13.616;2022-12-18T14:48:54;16.67;;;7.70;;
35550;SDS011;21655;46.056;13.616;2022-12-18T14:51:21;17.08;;;9.23;;
35550;SDS011;21655;46.056;13.616;2022-12-18T14:53:51;15.57;;;8.95;;
35550;SDS011;21655;46.056;13.616;2022-12-18T14:56:22;15.20;;;8.57;;
35550;SDS011;21655;46.056;13.616;2022-12-18T14:58:50;17.20;;;8.80;;
35550;SDS011;21655;46.056;13.616;2022-12-18T15:01:24;16.27;;;9.10;;
35550;SDS011;21655;46.056;13.616;2022-12-18T15:03:52;16.58;;;9.13;;
35550;SDS011;21655;46.056;13.616;2022-12-18T15:06:27;20.13;;;10.32;;
35550;SDS011;21655;46.056;13.616;2022-12-18T15:09:04;18.35;;;9.32;;
35550;SDS011;21655;46.056;13.616;2022-12-18T15:11:45;17.17;;;9.02;;
35550;SDS011;21655;46.056;13.616;2022-12-18T15:14:21;15.68;;;8.55;;
35550;SDS011;21655;46.056;13.616;2022-12-18T15:16:58;18.45;;;9.73;;
35550;SDS011;21655;46.056;13.616;2022-12-18T15:19:41;15.35;;;8.52;;
35550;SDS011;21655;46.056;13.616;2022-12-18T15:22:27;17.42;;;9.73;;
35550;SDS011;21655;46.056;13.616;2022-12-18T15:24:55;16.90;;;8.68;;
35550;SDS011;21655;46.056;13.616;2022-12-18T15:27:27;20.48;;;9.35;;
35550;SDS011;21655;46.056;13.616;2022-12-18T15:32:37;16.45;;;9.00;;
35550;SDS011;21655;46.056;13.616;2022-12-18T15:35:20;16.15;;;8.75;;
35550;SDS011;21655;46.056;13.616;2022-12-18T15:37:48;19.33;;;9.95;;
35550;SDS011;21655;46.056;13.616;2022-12-18T15:40:19;20.60;;;10.50;;
35550;SDS011;21655;46.056;13.616;2022-12-18T15:42:46;18.23;;;9.95;;
35550;SDS011;21655;46.056;13.616;2022-12-18T15:45:32;19.90;;;9.32;;
35550;SDS011;21655;46.056;13.616;2022-12-18T15:47:58;20.25;;;9.48;;
35550;SDS011;21655;46.056;13.616;2022-12-18T15:50:23;20.85;;;9.77;;
35550;SDS011;21655;46.056;13.616;2022-12-18T15:52:49;18.73;;;9.95;;
35550;SDS011;21655;46.056;13.616;2022-12-18T15:55:18;21.48;;;10.55;;
35550;SDS011;21655;46.056;13.616;2022-12-18T15:58:04;17.70;;;9.77;;
35550;SDS011;21655;46.056;13.616;2022-12-18T16:00:33;25.95;;;10.95;;
35550;SDS011;21655;46.056;13.616;2022-12-18T16:03:03;21.05;;;10.45;;
35550;SDS011;21655;46.056;13.616;2022-12-18T16:05:29;23.40;;;10.77;;
35550;SDS011;21655;46.056;13.616;2022-12-18T16:07:56;19.90;;;10.63;;
35550;SDS011;21655;46.056;13.616;2022-12-18T16:10:23;22.48;;;10.48;;
35550;SDS011;21655;46.056;13.616;2022-12-18T16:12:50;20.95;;;10.23;;
35550;SDS011;21655;46.056;13.616;2022-12-18T16:15:15;19.98;;;10.02;;
35550;SDS011;21655;46.056;13.616;2022-12-18T16:17:45;19.42;;;10.80;;
35550;SDS011;21655;46.056;13.616;2022-12-18T16:20:15;19.40;;;10.15;;
35550;SDS011;21655;46.056;13.616;2022-12-18T16:22:42;18.60;;;10.00;;
35550;SDS011;21655;46.056;13.616;2022-12-18T16:25:17;20.30;;;9.48;;
35550;SDS011;21655;46.056;13.616;2022-12-18T16:27:44;18.98;;;9.88;;
35550;SDS011;21655;46.056;13.616;2022-12-18T16:30:17;20.75;;;10.32;;
35550;SDS011;21655;46.056;13.616;2022-12-18T16:32:46;22.63;;;11.10;;
35550;SDS011;21655;46.056;13.616;2022-12-18T16:35:12;20.70;;;10.40;;
35550;SDS011;21655;46.056;13.616;2022-12-18T16:37:40;20.27;;;10.63;;
35550;SDS011;21655;46.056;13.616;2022-12-18T16:40:06;20.60;;;9.98;;
35550;SDS011;21655;46.056;13.616;2022-12-18T16:42:34;20.60;;;10.00;;
35550;SDS011;21655;46.056;13.616;2022-12-18T16:45:01;20.85;;;11.13;;
35550;SDS011;21655;46.056;13.616;2022-12-18T16:47:28;20.38;;;10.95;;
35550;SDS011;21655;46.056;13.616;2022-12-18T16:49:54;22.00;;;11.60;;
35550;SDS011;21655;46.056;13.616;2022-12-18T16:52:19;21.17;;;11.00;;